メインページ
METAR-TAF:

METAR-TAF

空港 :

Sault Ste. Marie Municipal Airport (Sanderson Field)

スーセントマリー, ミシガン州, アメリカ合衆国

緯度: 46-28-46N, 経度: 084-21-26W, 海抜: 210m

現時点の気象観測

当レポートは13分前の19:55(UTC)に作成
西の風 8kt
気温 -7°C
湿度 62%
気圧 1032 hPa
視程: 12.9km
高度3900ftの曇り

METAR: KANJ 201955Z AUTO 27008KT 8SM OVC039 M07/M13 A3048 RMK AO2 SNB45E55 SLP337 P0000 T10671133

時間: 15:08 (20:08 UTC)


TAF: 見つかりません

4,000以上の空港の気象観測と天気予報(METAR報とTAF報)

利用可能な観測所は地図上に黄色い丸と赤い丸で示す。

丸の上にカーソルを重ねると観測所名を参照できる。

次にクリックすると気象観測と天気予報を参照できる。

マップの切り替え:黒色「×」印の緑ボタンをクリックして拡大、「-」印の緑ボタンをクリックして縮小、緑色の三角印をクリックして隣りの地図に切り替え


METAR-TAF: